sensor_id;sensor_type;location;lat;lon;timestamp;temperature;humidity
981;DHT22;479;53.514;9.994;2022-08-19T00:01:20;20.60;99.90
981;DHT22;479;53.514;9.994;2022-08-19T00:03:47;20.60;99.90
981;DHT22;479;53.514;9.994;2022-08-19T00:06:14;20.70;99.90
981;DHT22;479;53.514;9.994;2022-08-19T00:08:43;20.70;99.90
981;DHT22;479;53.514;9.994;2022-08-19T00:11:10;20.70;99.90
981;DHT22;479;53.514;9.994;2022-08-19T00:13:38;20.70;99.90
981;DHT22;479;53.514;9.994;2022-08-19T00:16:05;20.60;99.90
981;DHT22;479;53.514;9.994;2022-08-19T00:18:33;20.60;99.90
981;DHT22;479;53.514;9.994;2022-08-19T00:21:00;20.60;99.90
981;DHT22;479;53.514;9.994;2022-08-19T00:23:27;20.60;99.90
981;DHT22;479;53.514;9.994;2022-08-19T00:25:55;20.70;99.90
981;DHT22;479;53.514;9.994;2022-08-19T00:28:22;20.80;99.90
981;DHT22;479;53.514;9.994;2022-08-19T00:30:49;20.70;99.90
981;DHT22;479;53.514;9.994;2022-08-19T00:33:17;20.70;99.90
981;DHT22;479;53.514;9.994;2022-08-19T00:35:44;20.70;99.90
981;DHT22;479;53.514;9.994;2022-08-19T00:38:11;20.80;99.90
981;DHT22;479;53.514;9.994;2022-08-19T00:40:38;20.70;99.90
981;DHT22;479;53.514;9.994;2022-08-19T00:43:10;20.50;99.90
981;DHT22;479;53.514;9.994;2022-08-19T00:45:39;20.40;99.90
981;DHT22;479;53.514;9.994;2022-08-19T00:48:07;20.40;99.90
981;DHT22;479;53.514;9.994;2022-08-19T00:50:35;20.40;99.90
981;DHT22;479;53.514;9.994;2022-08-19T00:53:02;20.50;99.90
981;DHT22;479;53.514;9.994;2022-08-19T00:55:31;20.40;99.90
981;DHT22;479;53.514;9.994;2022-08-19T00:58:02;20.50;99.90
981;DHT22;479;53.514;9.994;2022-08-19T01:00:32;20.50;99.90
981;DHT22;479;53.514;9.994;2022-08-19T01:03:00;20.50;99.90
981;DHT22;479;53.514;9.994;2022-08-19T01:05:29;20.50;99.90
981;DHT22;479;53.514;9.994;2022-08-19T01:07:58;20.50;99.90
981;DHT22;479;53.514;9.994;2022-08-19T01:10:27;20.40;99.90
981;DHT22;479;53.514;9.994;2022-08-19T01:12:56;20.40;99.90
981;DHT22;479;53.514;9.994;2022-08-19T01:15:29;20.30;99.90
981;DHT22;479;53.514;9.994;2022-08-19T01:18:01;20.30;99.90
981;DHT22;479;53.514;9.994;2022-08-19T01:20:30;20.20;99.90
981;DHT22;479;53.514;9.994;2022-08-19T01:23:02;20.20;99.90
981;DHT22;479;53.514;9.994;2022-08-19T01:25:32;20.30;99.90
981;DHT22;479;53.514;9.994;2022-08-19T01:28:00;20.30;99.90
981;DHT22;479;53.514;9.994;2022-08-19T01:30:32;20.30;99.90
981;DHT22;479;53.514;9.994;2022-08-19T01:33:00;20.30;99.90
981;DHT22;479;53.514;9.994;2022-08-19T01:35:28;20.30;99.90
981;DHT22;479;53.514;9.994;2022-08-19T01:37:59;20.30;99.90
981;DHT22;479;53.514;9.994;2022-08-19T01:40:30;20.20;99.90
981;DHT22;479;53.514;9.994;2022-08-19T01:42:58;20.20;99.90
981;DHT22;479;53.514;9.994;2022-08-19T01:45:27;20.20;99.90
981;DHT22;479;53.514;9.994;2022-08-19T01:47:55;20.20;99.90
981;DHT22;479;53.514;9.994;2022-08-19T01:50:23;20.30;99.90
981;DHT22;479;53.514;9.994;2022-08-19T01:52:50;20.20;99.90
981;DHT22;479;53.514;9.994;2022-08-19T01:55:20;20.10;99.90
981;DHT22;479;53.514;9.994;2022-08-19T01:57:57;20.10;99.90
981;DHT22;479;53.514;9.994;2022-08-19T02:00:26;20.10;99.90
981;DHT22;479;53.514;9.994;2022-08-19T02:02:54;20.00;99.90
981;DHT22;479;53.514;9.994;2022-08-19T02:05:21;20.10;99.90
981;DHT22;479;53.514;9.994;2022-08-19T02:07:48;20.10;99.90
981;DHT22;479;53.514;9.994;2022-08-19T02:10:19;20.10;99.90
981;DHT22;479;53.514;9.994;2022-08-19T02:12:47;20.10;99.90
981;DHT22;479;53.514;9.994;2022-08-19T02:15:17;20.00;99.90
981;DHT22;479;53.514;9.994;2022-08-19T02:17:45;19.90;99.90
981;DHT22;479;53.514;9.994;2022-08-19T02:20:12;19.90;99.90
981;DHT22;479;53.514;9.994;2022-08-19T02:22:40;19.80;99.90
981;DHT22;479;53.514;9.994;2022-08-19T02:25:08;19.80;99.90
981;DHT22;479;53.514;9.994;2022-08-19T02:27:35;19.80;99.90
981;DHT22;479;53.514;9.994;2022-08-19T02:30:05;19.80;99.90
981;DHT22;479;53.514;9.994;2022-08-19T02:32:34;19.80;99.90
981;DHT22;479;53.514;9.994;2022-08-19T02:35:01;19.80;99.90
981;DHT22;479;53.514;9.994;2022-08-19T02:37:28;19.80;99.90
981;DHT22;479;53.514;9.994;2022-08-19T02:40:12;19.80;99.90
981;DHT22;479;53.514;9.994;2022-08-19T02:42:39;19.80;99.90
981;DHT22;479;53.514;9.994;2022-08-19T02:45:09;19.80;99.90
981;DHT22;479;53.514;9.994;2022-08-19T02:47:37;19.70;99.90
981;DHT22;479;53.514;9.994;2022-08-19T02:50:05;19.70;99.90
981;DHT22;479;53.514;9.994;2022-08-19T02:52:33;19.80;99.90
981;DHT22;479;53.514;9.994;2022-08-19T02:55:00;19.80;99.90
981;DHT22;479;53.514;9.994;2022-08-19T02:57:27;19.90;99.90
981;DHT22;479;53.514;9.994;2022-08-19T02:59:54;19.80;99.90
981;DHT22;479;53.514;9.994;2022-08-19T03:02:21;19.90;99.90
981;DHT22;479;53.514;9.994;2022-08-19T03:04:49;19.90;99.90
981;DHT22;479;53.514;9.994;2022-08-19T03:07:17;19.80;99.90
981;DHT22;479;53.514;9.994;2022-08-19T03:09:44;19.90;99.90
981;DHT22;479;53.514;9.994;2022-08-19T03:12:11;19.90;99.90
981;DHT22;479;53.514;9.994;2022-08-19T03:14:38;19.80;99.90
981;DHT22;479;53.514;9.994;2022-08-19T03:17:05;19.80;99.90
981;DHT22;479;53.514;9.994;2022-08-19T03:19:31;19.80;99.90
981;DHT22;479;53.514;9.994;2022-08-19T03:22:00;19.70;99.90
981;DHT22;479;53.514;9.994;2022-08-19T03:24:28;19.70;99.90
981;DHT22;479;53.514;9.994;2022-08-19T03:26:56;19.60;99.90
981;DHT22;479;53.514;9.994;2022-08-19T03:29:25;19.60;99.90
981;DHT22;479;53.514;9.994;2022-08-19T03:31:52;19.70;99.90
981;DHT22;479;53.514;9.994;2022-08-19T03:34:23;19.70;99.90
981;DHT22;479;53.514;9.994;2022-08-19T03:36:52;19.70;99.90
981;DHT22;479;53.514;9.994;2022-08-19T03:39:22;19.70;99.90
981;DHT22;479;53.514;9.994;2022-08-19T03:41:50;19.70;99.90
981;DHT22;479;53.514;9.994;2022-08-19T03:44:19;19.50;99.90
981;DHT22;479;53.514;9.994;2022-08-19T03:46:48;19.60;99.90
981;DHT22;479;53.514;9.994;2022-08-19T03:49:16;19.60;99.90
981;DHT22;479;53.514;9.994;2022-08-19T03:51:45;19.50;99.90
981;DHT22;479;53.514;9.994;2022-08-19T03:54:14;19.60;99.90
981;DHT22;479;53.514;9.994;2022-08-19T03:56:44;19.70;99.90
981;DHT22;479;53.514;9.994;2022-08-19T03:59:14;19.60;99.90
981;DHT22;479;53.514;9.994;2022-08-19T04:01:42;19.50;99.90
981;DHT22;479;53.514;9.994;2022-08-19T04:04:09;19.50;99.90
981;DHT22;479;53.514;9.994;2022-08-19T04:06:38;19.50;99.90
981;DHT22;479;53.514;9.994;2022-08-19T04:09:07;19.50;99.90
981;DHT22;479;53.514;9.994;2022-08-19T04:11:37;19.40;99.90
981;DHT22;479;53.514;9.994;2022-08-19T04:14:09;19.40;99.90
981;DHT22;479;53.514;9.994;2022-08-19T04:16:37;19.40;99.90
981;DHT22;479;53.514;9.994;2022-08-19T04:19:05;19.50;99.90
981;DHT22;479;53.514;9.994;2022-08-19T04:21:33;19.60;99.90
981;DHT22;479;53.514;9.994;2022-08-19T04:24:00;19.60;99.90
981;DHT22;479;53.514;9.994;2022-08-19T04:26:29;19.60;99.90
981;DHT22;479;53.514;9.994;2022-08-19T04:28:58;19.60;99.90
981;DHT22;479;53.514;9.994;2022-08-19T04:31:28;19.70;99.90
981;DHT22;479;53.514;9.994;2022-08-19T04:33:57;19.80;99.90
981;DHT22;479;53.514;9.994;2022-08-19T04:36:26;19.80;99.90
981;DHT22;479;53.514;9.994;2022-08-19T04:38:54;19.80;99.90
981;DHT22;479;53.514;9.994;2022-08-19T04:41:22;19.70;99.90
981;DHT22;479;53.514;9.994;2022-08-19T04:44:15;19.60;99.90
981;DHT22;479;53.514;9.994;2022-08-19T04:46:45;19.40;99.90
981;DHT22;479;53.514;9.994;2022-08-19T04:49:13;19.30;99.90
981;DHT22;479;53.514;9.994;2022-08-19T04:51:43;19.30;99.90
981;DHT22;479;53.514;9.994;2022-08-19T04:54:11;19.30;99.90
981;DHT22;479;53.514;9.994;2022-08-19T04:56:39;19.30;99.90
981;DHT22;479;53.514;9.994;2022-08-19T04:59:06;19.30;99.90
981;DHT22;479;53.514;9.994;2022-08-19T05:01:34;19.40;99.90
981;DHT22;479;53.514;9.994;2022-08-19T05:04:05;19.30;99.90
981;DHT22;479;53.514;9.994;2022-08-19T05:06:33;19.20;99.90
981;DHT22;479;53.514;9.994;2022-08-19T05:09:01;19.20;99.90
981;DHT22;479;53.514;9.994;2022-08-19T05:11:30;19.20;99.90
981;DHT22;479;53.514;9.994;2022-08-19T05:13:57;19.20;99.90
981;DHT22;479;53.514;9.994;2022-08-19T05:16:25;19.20;99.90
981;DHT22;479;53.514;9.994;2022-08-19T05:18:53;19.20;99.90
981;DHT22;479;53.514;9.994;2022-08-19T05:21:40;19.20;99.90
981;DHT22;479;53.514;9.994;2022-08-19T05:24:36;19.30;99.90
981;DHT22;479;53.514;9.994;2022-08-19T05:27:04;19.50;99.90
981;DHT22;479;53.514;9.994;2022-08-19T05:29:32;19.40;99.90
981;DHT22;479;53.514;9.994;2022-08-19T05:32:00;19.50;99.90
981;DHT22;479;53.514;9.994;2022-08-19T05:34:27;19.50;99.90
981;DHT22;479;53.514;9.994;2022-08-19T05:36:57;19.40;99.90
981;DHT22;479;53.514;9.994;2022-08-19T05:39:27;19.20;99.90
981;DHT22;479;53.514;9.994;2022-08-19T05:41:57;19.20;99.90
981;DHT22;479;53.514;9.994;2022-08-19T05:44:24;19.30;99.90
981;DHT22;479;53.514;9.994;2022-08-19T05:46:52;19.30;99.90
981;DHT22;479;53.514;9.994;2022-08-19T05:49:21;19.30;99.90
981;DHT22;479;53.514;9.994;2022-08-19T05:51:48;19.40;99.90
981;DHT22;479;53.514;9.994;2022-08-19T05:54:17;19.30;99.90
981;DHT22;479;53.514;9.994;2022-08-19T05:56:45;19.30;99.90
981;DHT22;479;53.514;9.994;2022-08-19T05:59:15;19.20;99.90
981;DHT22;479;53.514;9.994;2022-08-19T06:01:44;19.20;99.90
981;DHT22;479;53.514;9.994;2022-08-19T06:04:12;19.20;99.90
981;DHT22;479;53.514;9.994;2022-08-19T06:06:40;19.30;99.90
981;DHT22;479;53.514;9.994;2022-08-19T06:09:07;19.40;99.90
981;DHT22;479;53.514;9.994;2022-08-19T06:11:38;19.40;99.90
981;DHT22;479;53.514;9.994;2022-08-19T06:14:11;19.20;99.90
981;DHT22;479;53.514;9.994;2022-08-19T06:16:40;19.30;99.90
981;DHT22;479;53.514;9.994;2022-08-19T06:19:08;19.30;99.90
981;DHT22;479;53.514;9.994;2022-08-19T06:21:37;19.40;99.90
981;DHT22;479;53.514;9.994;2022-08-19T06:24:05;19.40;99.90
981;DHT22;479;53.514;9.994;2022-08-19T06:26:33;19.40;99.90
981;DHT22;479;53.514;9.994;2022-08-19T06:29:03;19.50;99.90
981;DHT22;479;53.514;9.994;2022-08-19T06:31:33;19.30;99.90
981;DHT22;479;53.514;9.994;2022-08-19T06:34:02;19.40;99.90
981;DHT22;479;53.514;9.994;2022-08-19T06:36:31;19.40;99.90
981;DHT22;479;53.514;9.994;2022-08-19T06:39:00;19.60;99.90
981;DHT22;479;53.514;9.994;2022-08-19T06:41:28;19.60;99.90
981;DHT22;479;53.514;9.994;2022-08-19T06:43:56;19.70;99.90
981;DHT22;479;53.514;9.994;2022-08-19T06:46:24;19.60;99.90
981;DHT22;479;53.514;9.994;2022-08-19T06:48:52;19.50;99.90
981;DHT22;479;53.514;9.994;2022-08-19T06:51:21;19.50;99.90
981;DHT22;479;53.514;9.994;2022-08-19T06:53:51;19.70;99.90
981;DHT22;479;53.514;9.994;2022-08-19T06:56:20;19.70;99.90
981;DHT22;479;53.514;9.994;2022-08-19T06:58:48;19.50;99.90
981;DHT22;479;53.514;9.994;2022-08-19T07:01:19;19.60;99.90
981;DHT22;479;53.514;9.994;2022-08-19T07:03:47;19.60;99.90
981;DHT22;479;53.514;9.994;2022-08-19T07:06:16;19.40;99.90
981;DHT22;479;53.514;9.994;2022-08-19T07:08:46;19.40;99.90
981;DHT22;479;53.514;9.994;2022-08-19T07:11:16;19.50;99.90
981;DHT22;479;53.514;9.994;2022-08-19T07:13:44;19.50;99.90
981;DHT22;479;53.514;9.994;2022-08-19T07:16:13;19.40;99.90
981;DHT22;479;53.514;9.994;2022-08-19T07:18:41;19.50;99.90
981;DHT22;479;53.514;9.994;2022-08-19T07:21:11;19.50;99.90
981;DHT22;479;53.514;9.994;2022-08-19T07:23:38;19.50;99.90
981;DHT22;479;53.514;9.994;2022-08-19T07:26:06;19.60;99.90
981;DHT22;479;53.514;9.994;2022-08-19T07:28:32;19.70;99.90
981;DHT22;479;53.514;9.994;2022-08-19T07:31:00;19.70;99.90
981;DHT22;479;53.514;9.994;2022-08-19T07:33:29;19.80;99.90
981;DHT22;479;53.514;9.994;2022-08-19T07:35:58;19.90;99.90
981;DHT22;479;53.514;9.994;2022-08-19T07:38:26;20.00;99.90
981;DHT22;479;53.514;9.994;2022-08-19T07:40:53;19.90;99.90
981;DHT22;479;53.514;9.994;2022-08-19T07:43:20;19.90;99.90
981;DHT22;479;53.514;9.994;2022-08-19T07:45:51;20.00;99.90
981;DHT22;479;53.514;9.994;2022-08-19T07:48:18;20.00;99.90
981;DHT22;479;53.514;9.994;2022-08-19T07:50:46;19.90;99.90
981;DHT22;479;53.514;9.994;2022-08-19T07:53:14;19.90;99.90
981;DHT22;479;53.514;9.994;2022-08-19T07:55:42;20.00;99.90
981;DHT22;479;53.514;9.994;2022-08-19T07:58:12;20.00;99.90
981;DHT22;479;53.514;9.994;2022-08-19T08:00:39;20.00;99.90
981;DHT22;479;53.514;9.994;2022-08-19T08:03:06;20.00;99.90
981;DHT22;479;53.514;9.994;2022-08-19T08:05:34;20.00;99.90
981;DHT22;479;53.514;9.994;2022-08-19T08:08:18;20.00;99.90
981;DHT22;479;53.514;9.994;2022-08-19T08:11:04;20.00;99.90
981;DHT22;479;53.514;9.994;2022-08-19T08:13:32;20.00;99.90
981;DHT22;479;53.514;9.994;2022-08-19T08:16:01;19.90;99.90
981;DHT22;479;53.514;9.994;2022-08-19T08:18:28;20.00;99.90
981;DHT22;479;53.514;9.994;2022-08-19T08:20:56;20.00;99.90
981;DHT22;479;53.514;9.994;2022-08-19T08:23:24;20.10;99.90
981;DHT22;479;53.514;9.994;2022-08-19T08:25:53;20.10;99.90
981;DHT22;479;53.514;9.994;2022-08-19T08:28:22;20.10;99.90
981;DHT22;479;53.514;9.994;2022-08-19T08:30:50;20.10;99.90
981;DHT22;479;53.514;9.994;2022-08-19T08:33:18;20.10;99.90
981;DHT22;479;53.514;9.994;2022-08-19T08:35:47;20.00;99.90
981;DHT22;479;53.514;9.994;2022-08-19T08:38:15;20.10;99.90
981;DHT22;479;53.514;9.994;2022-08-19T08:40:47;20.00;99.90
981;DHT22;479;53.514;9.994;2022-08-19T08:43:24;20.20;99.90
981;DHT22;479;53.514;9.994;2022-08-19T08:45:59;20.20;99.90
981;DHT22;479;53.514;9.994;2022-08-19T08:48:35;20.20;99.90
981;DHT22;479;53.514;9.994;2022-08-19T08:51:05;20.20;99.90
981;DHT22;479;53.514;9.994;2022-08-19T08:53:34;20.20;99.90
981;DHT22;479;53.514;9.994;2022-08-19T08:56:03;20.20;99.90
981;DHT22;479;53.514;9.994;2022-08-19T08:58:42;20.20;99.90
981;DHT22;479;53.514;9.994;2022-08-19T09:01:12;20.30;99.90
981;DHT22;479;53.514;9.994;2022-08-19T09:03:40;20.40;99.90
981;DHT22;479;53.514;9.994;2022-08-19T09:06:13;20.40;99.90
981;DHT22;479;53.514;9.994;2022-08-19T09:08:48;20.50;99.90
981;DHT22;479;53.514;9.994;2022-08-19T09:11:19;20.50;99.90
981;DHT22;479;53.514;9.994;2022-08-19T09:13:59;20.50;99.90
981;DHT22;479;53.514;9.994;2022-08-19T09:16:30;20.40;99.90
981;DHT22;479;53.514;9.994;2022-08-19T09:19:02;20.40;99.90
981;DHT22;479;53.514;9.994;2022-08-19T09:21:29;20.40;99.90
981;DHT22;479;53.514;9.994;2022-08-19T09:23:56;20.50;99.90
981;DHT22;479;53.514;9.994;2022-08-19T09:26:24;20.50;99.90
981;DHT22;479;53.514;9.994;2022-08-19T09:28:53;20.50;99.90
981;DHT22;479;53.514;9.994;2022-08-19T09:31:22;20.60;99.90
981;DHT22;479;53.514;9.994;2022-08-19T09:33:50;20.70;99.90
981;DHT22;479;53.514;9.994;2022-08-19T09:36:20;20.70;99.90
981;DHT22;479;53.514;9.994;2022-08-19T09:38:49;20.60;99.90
981;DHT22;479;53.514;9.994;2022-08-19T09:41:17;20.60;99.90
981;DHT22;479;53.514;9.994;2022-08-19T09:43:48;20.50;99.90
981;DHT22;479;53.514;9.994;2022-08-19T09:46:19;20.60;99.90
981;DHT22;479;53.514;9.994;2022-08-19T09:48:46;20.60;99.90
981;DHT22;479;53.514;9.994;2022-08-19T09:51:15;20.60;99.90
981;DHT22;479;53.514;9.994;2022-08-19T09:53:43;20.50;99.90
981;DHT22;479;53.514;9.994;2022-08-19T09:56:11;20.50;99.90
981;DHT22;479;53.514;9.994;2022-08-19T09:58:39;20.70;99.90
981;DHT22;479;53.514;9.994;2022-08-19T10:01:07;20.80;99.90
981;DHT22;479;53.514;9.994;2022-08-19T10:03:36;20.80;99.90
981;DHT22;479;53.514;9.994;2022-08-19T10:06:04;20.70;99.90
981;DHT22;479;53.514;9.994;2022-08-19T10:08:35;20.70;99.90
981;DHT22;479;53.514;9.994;2022-08-19T10:11:03;20.70;99.90
981;DHT22;479;53.514;9.994;2022-08-19T10:13:32;20.70;99.90
981;DHT22;479;53.514;9.994;2022-08-19T10:16:05;20.90;99.90
981;DHT22;479;53.514;9.994;2022-08-19T10:18:32;21.00;99.90
981;DHT22;479;53.514;9.994;2022-08-19T10:21:07;21.10;99.90
981;DHT22;479;53.514;9.994;2022-08-19T10:23:35;21.10;99.90
981;DHT22;479;53.514;9.994;2022-08-19T10:26:03;21.10;99.90
981;DHT22;479;53.514;9.994;2022-08-19T10:28:32;21.00;99.90
981;DHT22;479;53.514;9.994;2022-08-19T10:31:03;21.10;99.90
981;DHT22;479;53.514;9.994;2022-08-19T10:33:32;21.10;99.90
981;DHT22;479;53.514;9.994;2022-08-19T10:36:00;21.20;99.90
981;DHT22;479;53.514;9.994;2022-08-19T10:38:28;21.10;99.90
981;DHT22;479;53.514;9.994;2022-08-19T10:40:57;21.10;99.90
981;DHT22;479;53.514;9.994;2022-08-19T10:43:24;21.20;99.90
981;DHT22;479;53.514;9.994;2022-08-19T10:45:54;21.20;99.90
981;DHT22;479;53.514;9.994;2022-08-19T10:48:24;21.20;99.90
981;DHT22;479;53.514;9.994;2022-08-19T10:50:50;21.00;99.90
981;DHT22;479;53.514;9.994;2022-08-19T10:53:36;21.00;99.90
981;DHT22;479;53.514;9.994;2022-08-19T10:56:03;20.90;99.90
981;DHT22;479;53.514;9.994;2022-08-19T10:58:48;20.90;99.90
981;DHT22;479;53.514;9.994;2022-08-19T11:01:15;20.90;99.90
981;DHT22;479;53.514;9.994;2022-08-19T11:03:41;20.80;99.90
981;DHT22;479;53.514;9.994;2022-08-19T11:06:17;20.90;99.90
981;DHT22;479;53.514;9.994;2022-08-19T11:08:46;20.80;99.90
981;DHT22;479;53.514;9.994;2022-08-19T11:11:13;21.00;99.90
981;DHT22;479;53.514;9.994;2022-08-19T11:13:41;21.20;99.90
981;DHT22;479;53.514;9.994;2022-08-19T11:16:12;21.20;99.90
981;DHT22;479;53.514;9.994;2022-08-19T11:18:42;21.30;99.90
981;DHT22;479;53.514;9.994;2022-08-19T11:21:11;21.40;99.90
981;DHT22;479;53.514;9.994;2022-08-19T11:23:38;21.30;99.90
981;DHT22;479;53.514;9.994;2022-08-19T11:26:06;21.40;99.90
981;DHT22;479;53.514;9.994;2022-08-19T11:28:33;21.20;99.90
981;DHT22;479;53.514;9.994;2022-08-19T11:31:00;21.40;99.90
981;DHT22;479;53.514;9.994;2022-08-19T11:33:29;21.50;99.90
981;DHT22;479;53.514;9.994;2022-08-19T11:35:57;21.70;99.90
981;DHT22;479;53.514;9.994;2022-08-19T11:38:24;21.80;99.90
981;DHT22;479;53.514;9.994;2022-08-19T11:40:59;22.00;99.90
981;DHT22;479;53.514;9.994;2022-08-19T11:43:28;22.20;99.90
981;DHT22;479;53.514;9.994;2022-08-19T11:45:56;22.20;99.90
981;DHT22;479;53.514;9.994;2022-08-19T11:48:24;22.30;99.90
981;DHT22;479;53.514;9.994;2022-08-19T11:50:52;22.40;99.90
981;DHT22;479;53.514;9.994;2022-08-19T11:53:21;22.40;99.90
981;DHT22;479;53.514;9.994;2022-08-19T11:55:48;22.30;99.90
981;DHT22;479;53.514;9.994;2022-08-19T11:58:16;22.10;99.90
981;DHT22;479;53.514;9.994;2022-08-19T12:00:45;22.10;99.90
981;DHT22;479;53.514;9.994;2022-08-19T12:03:12;22.10;99.90
981;DHT22;479;53.514;9.994;2022-08-19T12:05:40;22.10;99.90
981;DHT22;479;53.514;9.994;2022-08-19T12:08:08;22.00;99.90
981;DHT22;479;53.514;9.994;2022-08-19T12:10:35;22.00;99.90
981;DHT22;479;53.514;9.994;2022-08-19T12:13:02;22.00;99.90
981;DHT22;479;53.514;9.994;2022-08-19T12:15:29;21.90;99.90
981;DHT22;479;53.514;9.994;2022-08-19T12:17:58;22.00;99.90
981;DHT22;479;53.514;9.994;2022-08-19T12:20:24;22.00;99.90
981;DHT22;479;53.514;9.994;2022-08-19T12:22:51;22.10;99.90
981;DHT22;479;53.514;9.994;2022-08-19T12:25:18;22.20;99.90
981;DHT22;479;53.514;9.994;2022-08-19T12:27:46;22.20;99.90
981;DHT22;479;53.514;9.994;2022-08-19T12:30:13;22.20;99.90
981;DHT22;479;53.514;9.994;2022-08-19T12:32:40;22.20;99.90
981;DHT22;479;53.514;9.994;2022-08-19T12:35:09;22.40;99.90
981;DHT22;479;53.514;9.994;2022-08-19T12:37:37;22.40;99.90
981;DHT22;479;53.514;9.994;2022-08-19T12:40:05;22.50;99.90
981;DHT22;479;53.514;9.994;2022-08-19T12:42:32;22.80;99.90
981;DHT22;479;53.514;9.994;2022-08-19T12:45:00;23.00;99.90
981;DHT22;479;53.514;9.994;2022-08-19T12:47:27;23.10;99.90
981;DHT22;479;53.514;9.994;2022-08-19T12:49:54;23.20;99.90
981;DHT22;479;53.514;9.994;2022-08-19T12:52:23;23.40;99.90
981;DHT22;479;53.514;9.994;2022-08-19T12:54:51;23.40;99.90
981;DHT22;479;53.514;9.994;2022-08-19T12:57:19;23.50;99.90
981;DHT22;479;53.514;9.994;2022-08-19T12:59:46;23.70;99.90
981;DHT22;479;53.514;9.994;2022-08-19T13:02:13;24.00;99.90
981;DHT22;479;53.514;9.994;2022-08-19T13:04:40;24.00;99.90
981;DHT22;479;53.514;9.994;2022-08-19T13:07:07;24.00;99.90
981;DHT22;479;53.514;9.994;2022-08-19T13:09:36;23.90;99.90
981;DHT22;479;53.514;9.994;2022-08-19T13:12:04;23.80;99.90
981;DHT22;479;53.514;9.994;2022-08-19T13:14:33;23.50;99.90
981;DHT22;479;53.514;9.994;2022-08-19T13:17:00;23.50;99.90
981;DHT22;479;53.514;9.994;2022-08-19T13:19:27;23.50;99.90
981;DHT22;479;53.514;9.994;2022-08-19T13:21:55;23.30;99.90
981;DHT22;479;53.514;9.994;2022-08-19T13:24:23;23.40;99.90
981;DHT22;479;53.514;9.994;2022-08-19T13:26:51;23.40;99.90
981;DHT22;479;53.514;9.994;2022-08-19T13:29:18;23.50;99.90
981;DHT22;479;53.514;9.994;2022-08-19T13:32:03;23.50;99.90
981;DHT22;479;53.514;9.994;2022-08-19T13:34:47;23.60;99.90
981;DHT22;479;53.514;9.994;2022-08-19T13:37:14;23.50;99.90
981;DHT22;479;53.514;9.994;2022-08-19T13:39:41;23.40;99.90
981;DHT22;479;53.514;9.994;2022-08-19T13:42:09;23.50;99.90
981;DHT22;479;53.514;9.994;2022-08-19T13:44:38;23.40;99.90
981;DHT22;479;53.514;9.994;2022-08-19T13:47:05;23.40;99.90
981;DHT22;479;53.514;9.994;2022-08-19T13:49:33;23.40;99.90
981;DHT22;479;53.514;9.994;2022-08-19T13:52:02;23.30;99.90
981;DHT22;479;53.514;9.994;2022-08-19T13:54:29;23.30;99.90
981;DHT22;479;53.514;9.994;2022-08-19T13:56:56;23.30;99.90
981;DHT22;479;53.514;9.994;2022-08-19T13:59:24;23.30;99.90
981;DHT22;479;53.514;9.994;2022-08-19T14:01:51;23.30;99.90
981;DHT22;479;53.514;9.994;2022-08-19T14:04:18;23.30;99.90
981;DHT22;479;53.514;9.994;2022-08-19T14:06:45;23.20;99.90
981;DHT22;479;53.514;9.994;2022-08-19T14:09:12;23.30;99.90
981;DHT22;479;53.514;9.994;2022-08-19T14:11:39;23.30;99.90
981;DHT22;479;53.514;9.994;2022-08-19T14:14:06;23.30;99.90
981;DHT22;479;53.514;9.994;2022-08-19T14:16:34;23.20;99.90
981;DHT22;479;53.514;9.994;2022-08-19T14:19:01;23.10;99.90
981;DHT22;479;53.514;9.994;2022-08-19T14:21:28;23.20;99.90
981;DHT22;479;53.514;9.994;2022-08-19T14:23:55;23.10;99.90
981;DHT22;479;53.514;9.994;2022-08-19T14:26:22;23.10;99.90
981;DHT22;479;53.514;9.994;2022-08-19T14:28:49;23.20;99.90
981;DHT22;479;53.514;9.994;2022-08-19T14:31:18;23.30;99.90
981;DHT22;479;53.514;9.994;2022-08-19T14:33:47;23.40;99.90
981;DHT22;479;53.514;9.994;2022-08-19T14:36:16;23.40;99.90
981;DHT22;479;53.514;9.994;2022-08-19T14:38:43;23.20;99.90
981;DHT22;479;53.514;9.994;2022-08-19T14:41:12;23.40;99.90
981;DHT22;479;53.514;9.994;2022-08-19T14:43:43;23.50;99.90
981;DHT22;479;53.514;9.994;2022-08-19T14:46:12;23.60;99.90
981;DHT22;479;53.514;9.994;2022-08-19T14:48:40;23.70;99.90
981;DHT22;479;53.514;9.994;2022-08-19T14:51:08;23.80;99.90
981;DHT22;479;53.514;9.994;2022-08-19T14:53:35;23.80;99.90
981;DHT22;479;53.514;9.994;2022-08-19T14:56:07;23.70;99.90
981;DHT22;479;53.514;9.994;2022-08-19T14:58:35;23.80;99.90
981;DHT22;479;53.514;9.994;2022-08-19T15:01:01;23.70;99.90
981;DHT22;479;53.514;9.994;2022-08-19T15:03:31;23.70;99.90
981;DHT22;479;53.514;9.994;2022-08-19T15:05:59;23.60;99.90
981;DHT22;479;53.514;9.994;2022-08-19T15:08:30;23.60;99.90
981;DHT22;479;53.514;9.994;2022-08-19T15:10:58;23.80;99.90
981;DHT22;479;53.514;9.994;2022-08-19T15:13:27;23.80;99.90
981;DHT22;479;53.514;9.994;2022-08-19T15:15:55;23.80;99.90
981;DHT22;479;53.514;9.994;2022-08-19T15:18:23;23.80;99.90
981;DHT22;479;53.514;9.994;2022-08-19T15:20:50;23.70;99.90
981;DHT22;479;53.514;9.994;2022-08-19T15:23:18;23.70;99.90
981;DHT22;479;53.514;9.994;2022-08-19T15:25:47;23.70;99.90
981;DHT22;479;53.514;9.994;2022-08-19T15:28:14;23.80;99.90
981;DHT22;479;53.514;9.994;2022-08-19T15:30:42;23.80;99.90
981;DHT22;479;53.514;9.994;2022-08-19T15:33:10;23.90;99.90
981;DHT22;479;53.514;9.994;2022-08-19T15:35:39;23.90;99.90
981;DHT22;479;53.514;9.994;2022-08-19T15:38:07;23.90;99.90
981;DHT22;479;53.514;9.994;2022-08-19T15:40:35;24.00;99.90
981;DHT22;479;53.514;9.994;2022-08-19T15:43:03;24.10;99.90
981;DHT22;479;53.514;9.994;2022-08-19T15:45:30;24.00;99.90
981;DHT22;479;53.514;9.994;2022-08-19T15:47:58;24.00;99.90
981;DHT22;479;53.514;9.994;2022-08-19T15:50:25;23.90;99.90
981;DHT22;479;53.514;9.994;2022-08-19T15:52:54;23.90;99.90
981;DHT22;479;53.514;9.994;2022-08-19T15:55:23;23.80;99.90
981;DHT22;479;53.514;9.994;2022-08-19T15:57:52;23.70;99.90
981;DHT22;479;53.514;9.994;2022-08-19T16:00:38;23.80;99.90
981;DHT22;479;53.514;9.994;2022-08-19T16:03:22;23.90;99.90
981;DHT22;479;53.514;9.994;2022-08-19T16:06:07;24.00;99.90
981;DHT22;479;53.514;9.994;2022-08-19T16:08:52;24.00;99.90
981;DHT22;479;53.514;9.994;2022-08-19T16:11:20;23.80;99.90
981;DHT22;479;53.514;9.994;2022-08-19T16:13:48;23.70;99.90
981;DHT22;479;53.514;9.994;2022-08-19T16:16:18;23.60;99.90
981;DHT22;479;53.514;9.994;2022-08-19T16:18:45;23.50;99.90
981;DHT22;479;53.514;9.994;2022-08-19T16:21:12;23.40;99.90
981;DHT22;479;53.514;9.994;2022-08-19T16:23:42;23.40;99.90
981;DHT22;479;53.514;9.994;2022-08-19T16:26:10;23.50;99.90
981;DHT22;479;53.514;9.994;2022-08-19T16:28:37;23.50;99.90
981;DHT22;479;53.514;9.994;2022-08-19T16:31:04;23.50;99.90
981;DHT22;479;53.514;9.994;2022-08-19T16:33:33;23.50;99.90
981;DHT22;479;53.514;9.994;2022-08-19T16:36:00;23.60;99.90
981;DHT22;479;53.514;9.994;2022-08-19T16:38:27;23.60;99.90
981;DHT22;479;53.514;9.994;2022-08-19T16:40:54;23.60;99.90
981;DHT22;479;53.514;9.994;2022-08-19T16:43:22;23.60;99.90
981;DHT22;479;53.514;9.994;2022-08-19T16:45:51;23.40;99.90